Aérodrome :
LOGIN :

S'inscrire | Disclaimer

   EN    FR    IT 

 










Légende :    VFR   VFR Marginal   IFR   IFR Intensif   IFR Très Intensif
Visi : 
Plafond : 
>= 8 km
>= 3000ft
5 à 8 km
1000 à 3000 ft
1500m à 5 km
500 à 1000 ft
800 à 1500m
200 à 500 ft
< 800m
< 200 ft
Symboles :   Orages  Brouillard  Fortes neiges  Fortes précipitations  Vent > 20 kt
SIGMETs :   Divers  Orages  Givrage  Turbulence  Onde Orograph.  Cendres Volcan.







- Altitude de l'aérodrome : 171 ft
- Code IATA : EGC
- Voir les cartes d'approche


LFBE - Bergerac

DERNIER METAR :
  • 221430Z AUTO 29005KT 9999 BKN007 OVC016 06/05 Q1008 BECMG SCT030

METARs EXPIRÉS :
  • 221400Z AUTO 32004KT 290V350 9999 BKN011 BKN018 BKN024 05/04 Q1008 TEMPO 18010KT 4000 RA BECMG SCT030
  • 221330Z AUTO VRB02KT 6000 -RA BKN010/// BKN022/// BKN034/// ///TCU 05/04 Q1008 TEMPO 4000 RA BECMG SCT030
  • 221300Z AUTO 13004KT 7000 RA BKN010/// OVC015/// ///TCU 04/04 Q1009 TEMPO 4000 RA BKN005
  • 221230Z AUTO 14003KT 110V180 5000 RA BR OVC010/// ///TCU 04/04 Q1009 TEMPO BKN005
  • 221200Z AUTO 13006KT 090V160 5000 RA BR BKN012/// BKN021/// OVC027/// ///TCU 04/03 Q1010 TEMPO BKN005

TAF TAF LFBE
Valide du 22 à 12h jusqu'au 23 à 12h UTC


221100Z 2212/2312 18010KT 9999 OVC020
TEMPO 2212/2215 4000 RA BKN005
FM221500 30010KT 9999 SCT030
BECMG 2221/2223 24005KT
TEMPO 2221/2224 3000 SHRA BKN015TCU
TEMPO 2300/2306 3000 RA BR BKN010
Pas de NOTAMs connus pour ce terrain.



MET'MAP, la Météo Aéronautique d'un coup d'oeil ! - Copyright ORBIFLY Décembre 2007 - Disclaimer

ORBIFLY MET'MAP TEAM :

Programmation & Développement : Alexandra Zaïnal
Conception & Développement : Baudouin d'Aumeries
Co-Programmation & Développement : Marc-Olivier Méhu
Soutien technique & logistique : Manuel Goepfert

Contact : metmap@orbifly.com




SOURCES & CREDITS :

   NOAA